Time;durP1;ratioP1;P1;durP2;ratioP2;P2;SDS_P1;SDS_P2;PMS_P1;PMS_P2;Temp;Humidity;BMP_temperature;BMP_pressure;BME280_temperature;BME280_humidity;BME280_pressure;Samples;Min_cycle;Max_cycle;Signal;HPM_P1;HPM_P2
2021/01/02 00:00:52;;;;;;;15.77;11.63;;;0.70;99.90;;;1.49;100.00;99850.28;4751262;30;20751;-64
2021/01/02 00:04:16;;;;;;;16.10;11.60;;;0.70;99.90;;;1.46;100.00;99848.78;4751293;30;20245;-62
2021/01/02 00:07:25;;;;;;;16.43;11.53;;;0.60;99.90;;;1.51;100.00;99848.25;4750782;30;20308;-63
2021/01/02 00:10:00;;;;;;;15.20;10.67;;;0.60;99.90;;;1.54;100.00;99850.59;4710433;30;20220;-62
2021/01/02 00:12:58;;;;;;;17.63;11.37;;;0.60;99.90;;;1.60;100.00;99848.09;4752698;30;20644;-62
2021/01/02 00:15:35;;;;;;;16.70;11.77;;;0.60;99.90;;;1.55;100.00;99854.91;4751216;30;20651;-63
2021/01/02 00:18:31;;;;;;;14.73;10.17;;;0.60;99.90;;;1.50;100.00;99858.06;4751209;30;20287;-63
2021/01/02 00:21:15;;;;;;;13.00;9.27;;;0.50;99.90;;;1.54;100.00;99855.91;4750695;30;20226;-64
2021/01/02 00:24:28;;;;;;;14.90;9.90;;;0.60;99.90;;;1.44;100.00;99857.91;4750685;30;20202;-63
2021/01/02 00:27:20;;;;;;;13.43;9.67;;;0.50;99.90;;;1.25;100.00;99849.31;4750600;30;20622;-63
2021/01/02 00:30:07;;;;;;;15.80;9.77;;;0.50;99.90;;;1.09;100.00;99848.50;4751066;30;20279;-63
2021/01/02 00:32:50;;;;;;;13.10;9.43;;;0.40;99.90;;;1.25;100.00;99856.47;4751062;30;20238;-63
2021/01/02 00:35:20;;;;;;;12.57;8.90;;;0.40;99.90;;;1.27;100.00;99849.13;4750654;30;20276;-62
2021/01/02 00:38:00;;;;;;;13.50;9.27;;;0.40;99.90;;;1.25;100.00;99851.16;4751067;30;20715;-62
2021/01/02 00:40:30;;;;;;;14.30;9.40;;;0.40;99.90;;;0.89;100.00;99865.75;4754557;30;20638;-62
2021/01/02 00:42:57;;;;;;;13.83;9.83;;;0.30;99.90;;;0.90;100.00;99849.66;4754645;30;20265;-63
2021/01/02 00:45:28;;;;;;;13.40;9.40;;;0.20;99.90;;;1.01;100.00;99859.13;4754446;30;20227;-63
2021/01/02 00:47:56;;;;;;;13.43;10.13;;;0.20;99.90;;;0.92;100.00;99863.59;4754607;30;20620;-63
2021/01/02 00:50:25;;;;;;;14.03;10.10;;;0.20;99.90;;;0.83;100.00;99866.41;4753705;30;20331;-62
2021/01/02 00:53:50;;;;;;;17.33;12.13;;;0.20;99.90;;;0.95;100.00;99865.91;4754072;30;20306;-64
2021/01/02 00:56:34;;;;;;;17.43;12.70;;;0.20;99.90;;;0.84;100.00;99870.72;4742992;30;20216;-63
2021/01/02 01:00:01;;;;;;;17.97;12.10;;;0.20;99.90;;;0.97;100.00;99865.75;4754363;30;20284;-63
2021/01/02 01:03:04;;;;;;;16.30;11.70;;;0.20;99.90;;;0.92;100.00;99871.56;4746877;30;20307;-62
2021/01/02 01:05:37;;;;;;;17.80;13.10;;;0.20;99.90;;;0.95;100.00;99884.47;4681699;30;20348;-62
2021/01/02 01:08:06;;;;;;;18.47;13.13;;;0.20;99.90;;;1.18;100.00;99871.38;4742938;30;20208;-62
2021/01/02 01:10:36;;;;;;;16.77;12.37;;;0.20;99.90;;;1.39;100.00;99876.19;4753720;30;20212;-63
2021/01/02 01:13:08;;;;;;;16.23;12.27;;;0.30;99.90;;;1.29;100.00;99880.84;4753511;30;20299;-64
2021/01/02 01:15:38;;;;;;;16.73;12.03;;;0.30;99.90;;;1.34;100.00;99881.97;4753995;30;20224;-63
2021/01/02 01:18:38;;;;;;;16.70;11.73;;;0.30;99.90;;;1.16;100.00;99883.97;4753515;30;20585;-64
2021/01/02 01:21:09;;;;;;;16.17;11.10;;;0.30;99.90;;;1.11;100.00;99891.59;4753188;30;20239;-63
2021/01/02 01:24:00;;;;;;;16.63;11.50;;;0.30;99.90;;;0.94;100.00;99884.63;4753399;30;20204;-63
2021/01/02 01:26:43;;;;;;;18.63;11.50;;;0.20;99.90;;;1.20;100.00;99888.78;4753301;30;20327;-62
2021/01/02 01:29:22;;;;;;;14.13;11.17;;;0.20;99.90;;;1.12;100.00;99887.94;4753584;30;20193;-63
2021/01/02 01:31:57;;;;;;;17.57;11.60;;;0.20;99.90;;;1.09;100.00;99889.13;4753703;30;20200;-62
2021/01/02 01:34:27;;;;;;;16.67;11.57;;;0.20;99.90;;;1.09;100.00;99888.28;4753074;30;20232;-64
2021/01/02 01:36:55;;;;;;;16.77;12.03;;;0.20;99.90;;;0.88;100.00;99886.13;4753915;30;20556;-63
2021/01/02 01:39:25;;;;;;;15.43;11.20;;;0.10;99.90;;;0.92;100.00;99890.09;4753803;30;20639;-63
2021/01/02 01:42:01;;;;;;;15.77;11.90;;;0.10;99.90;;;0.65;100.00;99890.41;4753656;30;20309;-64
2021/01/02 01:44:54;;;;;;;17.13;12.27;;;0.10;99.90;;;0.50;100.00;99899.97;4752872;30;20207;-63
2021/01/02 01:47:34;;;;;;;15.87;10.67;;;0.00;99.90;;;0.82;100.00;99891.25;4724907;30;20611;-62
2021/01/02 01:50:42;;;;;;;19.53;11.83;;;-0.10;99.90;;;0.82;100.00;99892.09;4716632;30;20760;-62
2021/01/02 01:53:58;;;;;;;16.07;11.07;;;0.00;99.90;;;0.82;100.00;99891.25;4718081;30;20256;-63
2021/01/02 01:56:31;;;;;;;15.67;11.57;;;0.00;99.90;;;0.81;100.00;99892.25;4718041;30;20287;-62
2021/01/02 01:59:23;;;;;;;16.03;10.80;;;0.00;99.90;;;0.64;100.00;99891.41;4717845;30;20233;-61
2021/01/02 02:01:53;;;;;;;16.37;11.13;;;-0.10;99.90;;;0.86;100.00;99896.06;4719746;30;20317;-62
2021/01/02 02:05:11;;;;;;;17.37;11.80;;;-0.10;99.90;;;0.88;100.00;99901.22;4717715;30;20229;-63
2021/01/02 02:07:47;;;;;;;15.97;11.20;;;-0.10;99.90;;;1.02;100.00;99896.06;4713567;30;20323;-62
2021/01/02 02:10:26;;;;;;;16.17;11.87;;;0.00;99.90;;;1.07;100.00;99903.53;4717608;30;20202;-63
2021/01/02 02:12:55;;;;;;;16.20;11.67;;;0.00;99.90;;;0.98;100.00;99899.22;4729275;30;20755;-63
2021/01/02 02:15:25;;;;;;;15.43;11.47;;;0.00;99.90;;;0.88;100.00;99899.38;4753223;30;20244;-62
2021/01/02 02:18:06;;;;;;;15.53;11.17;;;0.00;99.90;;;1.32;100.00;99899.88;4741256;30;20229;-63
2021/01/02 02:20:35;;;;;;;16.03;11.33;;;0.10;99.90;;;0.95;100.00;99905.69;4717053;30;20289;-63
2021/01/02 02:23:07;;;;;;;17.43;11.70;;;0.10;99.90;;;1.45;100.00;99902.84;4724552;30;20233;-62
2021/01/02 02:25:59;;;;;;;14.33;10.37;;;0.20;99.90;;;1.50;100.00;99905.00;4734036;30;20223;-62
2021/01/02 02:29:03;;;;;;;17.40;11.70;;;0.30;99.90;;;1.07;100.00;99892.91;4735282;30;20266;-64
2021/01/02 02:31:33;;;;;;;15.93;11.00;;;0.30;99.90;;;0.84;100.00;99902.53;4735269;30;20286;-62
2021/01/02 02:34:03;;;;;;;15.47;11.17;;;0.10;99.90;;;0.70;100.00;99908.44;4734696;30;20533;-62
2021/01/02 02:36:34;;;;;;;19.10;12.27;;;0.10;99.90;;;0.84;100.00;99899.88;4734920;30;20724;-62
2021/01/02 02:39:06;;;;;;;17.33;13.00;;;0.00;99.90;;;0.81;100.00;99905.50;4734679;30;20568;-62
2021/01/02 02:41:43;;;;;;;18.90;13.40;;;-0.10;99.90;;;0.86;100.00;99900.53;4735061;30;20297;-62
2021/01/02 02:44:11;;;;;;;20.47;15.47;;;-0.10;99.90;;;1.06;100.00;99904.53;4735092;30;20227;-63
2021/01/02 02:46:44;;;;;;;19.20;13.70;;;0.00;99.90;;;0.84;100.00;99908.66;4730441;30;20226;-62
2021/01/02 02:49:24;;;;;;;16.90;12.87;;;0.00;99.90;;;0.84;100.00;99916.63;4723866;30;20286;-63
2021/01/02 02:51:59;;;;;;;16.37;11.40;;;0.00;99.90;;;0.78;100.00;99909.31;4726466;30;20369;-62
2021/01/02 02:54:26;;;;;;;18.90;12.80;;;-0.10;99.90;;;0.88;100.00;99909.16;4724482;30;20283;-62
2021/01/02 02:56:54;;;;;;;16.97;12.63;;;-0.10;99.90;;;0.90;100.00;99917.75;4726559;30;20296;-63
2021/01/02 02:59:26;;;;;;;18.90;12.93;;;-0.10;99.90;;;0.86;100.00;99916.44;4726086;30;20194;-62
2021/01/02 03:01:53;;;;;;;16.13;12.40;;;-0.10;99.90;;;0.78;100.00;99911.13;4724045;30;20256;-62
2021/01/02 03:04:21;;;;;;;19.00;13.77;;;-0.10;99.90;;;0.63;100.00;99908.28;4725671;30;20309;-62
2021/01/02 03:06:50;;;;;;;18.40;13.60;;;-0.10;99.90;;;0.37;100.00;99919.97;4725684;30;20298;-62
2021/01/02 03:09:17;;;;;;;21.30;15.47;;;-0.20;99.90;;;0.57;100.00;99914.25;4724495;30;20293;-62
2021/01/02 03:11:44;;;;;;;20.87;14.57;;;-0.30;99.90;;;0.70;100.00;99914.59;4734259;30;20213;-62
2021/01/02 03:14:12;;;;;;;19.93;13.27;;;-0.20;99.90;;;0.68;100.00;99918.38;4746666;30;20232;-62
2021/01/02 03:16:39;;;;;;;18.87;13.23;;;-0.20;99.90;;;0.61;100.00;99915.56;4732039;30;20209;-62
2021/01/02 03:19:06;;;;;;;18.77;12.77;;;-0.20;99.90;;;0.73;100.00;99919.56;4739952;30;20252;-63
2021/01/02 03:21:34;;;;;;;18.27;12.30;;;-0.20;99.90;;;0.83;100.00;99914.13;4744931;30;20215;-63
2021/01/02 03:24:03;;;;;;;17.33;12.10;;;-0.10;99.90;;;1.17;100.00;99922.75;4740792;30;20256;-63
2021/01/02 03:26:30;;;;;;;18.30;12.10;;;0.00;99.90;;;1.11;100.00;99916.31;4734047;30;20323;-62
2021/01/02 03:28:58;;;;;;;16.43;11.90;;;0.10;99.90;;;1.21;100.00;99921.44;4733806;30;20220;-62
2021/01/02 03:31:26;;;;;;;20.67;11.97;;;0.10;99.90;;;1.43;100.00;99919.94;4733891;30;20699;-63
2021/01/02 03:33:53;;;;;;;17.53;12.03;;;0.20;99.90;;;1.70;100.00;99917.75;4733999;30;20213;-62
2021/01/02 03:36:20;;;;;;;20.37;12.57;;;0.40;99.90;;;1.56;100.00;99918.41;4734117;30;20298;-62
2021/01/02 03:38:54;;;;;;;17.83;11.93;;;0.50;99.90;;;1.57;100.00;99920.09;4733631;30;20592;-61
2021/01/02 03:41:23;;;;;;;19.73;13.13;;;0.60;99.90;;;1.98;100.00;99924.28;4734072;30;20761;-63
2021/01/02 03:43:52;;;;;;;17.20;11.73;;;0.70;99.90;;;2.16;100.00;99924.91;4733863;30;20302;-62
2021/01/02 03:46:20;;;;;;;16.43;11.97;;;0.90;99.90;;;2.32;100.00;99927.50;4733945;30;20213;-62
2021/01/02 03:48:48;;;;;;;16.27;11.10;;;1.10;99.90;;;2.36;100.00;99923.50;4733270;30;20251;-62
2021/01/02 03:51:23;;;;;;;16.33;11.43;;;1.20;99.90;;;2.32;100.00;99911.56;4733722;30;20877;-63
2021/01/02 03:53:51;;;;;;;19.37;12.23;;;1.20;99.90;;;2.41;100.00;99913.19;4733591;30;20300;-63
2021/01/02 03:56:18;;;;;;;16.70;11.50;;;1.30;99.90;;;2.23;100.00;99922.41;4733550;30;20275;-61
2021/01/02 03:58:46;;;;;;;17.13;11.87;;;1.40;99.90;;;1.97;100.00;99920.00;4733587;30;20642;-62
2021/01/02 04:01:14;;;;;;;19.30;12.93;;;1.30;99.90;;;2.23;100.00;99917.09;4733684;30;20217;-62
2021/01/02 04:03:41;;;;;;;18.60;12.20;;;1.30;99.90;;;2.41;100.00;99912.34;4733574;30;20216;-62
2021/01/02 04:06:08;;;;;;;17.93;12.20;;;1.40;99.90;;;2.18;100.00;99914.94;4733768;30;20309;-62
2021/01/02 04:08:36;;;;;;;16.93;11.73;;;1.40;99.90;;;2.56;100.00;99918.56;4733709;30;20294;-62
2021/01/02 04:11:04;;;;;;;16.07;11.33;;;1.50;99.90;;;2.63;100.00;99916.03;4733519;30;20846;-62
2021/01/02 04:13:31;;;;;;;15.17;10.90;;;1.50;99.90;;;2.47;100.00;99919.59;4743483;30;20216;-62
2021/01/02 04:15:58;;;;;;;14.93;10.30;;;1.60;99.90;;;2.09;100.00;99921.28;4751088;30;20759;-62
2021/01/02 04:18:25;;;;;;;20.83;12.07;;;1.40;99.90;;;2.14;100.00;99915.44;4750908;30;20634;-62
2021/01/02 04:20:52;;;;;;;16.37;11.43;;;1.40;99.90;;;2.25;100.00;99920.41;4751167;30;20273;-62
2021/01/02 04:23:20;;;;;;;16.20;12.00;;;1.40;99.90;;;2.56;100.00;99909.75;4751239;30;20315;-62
2021/01/02 04:25:48;;;;;;;19.40;13.87;;;1.50;99.90;;;2.39;100.00;99912.53;4751215;30;20243;-63
2021/01/02 04:28:16;;;;;;;16.90;11.57;;;1.40;99.90;;;2.50;100.00;99913.97;4750634;30;20275;-63
2021/01/02 04:30:43;;;;;;;18.53;12.67;;;1.50;99.90;;;2.35;100.00;99921.81;4751112;30;20254;-62
2021/01/02 04:33:10;;;;;;;17.33;12.23;;;1.50;99.90;;;2.91;100.00;99918.03;4751125;30;20212;-62
2021/01/02 04:35:38;;;;;;;17.33;10.83;;;1.60;99.90;;;2.70;100.00;99924.97;4751214;30;20239;-61
2021/01/02 04:38:05;;;;;;;15.67;11.00;;;1.70;99.90;;;2.75;100.00;99922.63;4750933;30;20212;-62
2021/01/02 04:40:32;;;;;;;16.20;11.10;;;1.70;99.90;;;2.76;100.00;99917.13;4750443;30;20769;-62
2021/01/02 04:43:02;;;;;;;16.57;11.27;;;1.70;99.90;;;2.87;100.00;99921.22;4750784;30;20216;-62
2021/01/02 04:45:31;;;;;;;16.27;10.27;;;1.80;99.90;;;2.49;100.00;99920.25;4750358;30;20212;-62
2021/01/02 04:48:06;;;;;;;16.60;10.97;;;1.70;99.90;;;2.79;100.00;99921.28;4750547;30;20232;-63
2021/01/02 04:50:34;;;;;;;16.33;11.40;;;1.80;99.90;;;2.93;100.00;99920.50;4750600;30;20647;-63
2021/01/02 04:53:05;;;;;;;16.37;11.27;;;1.90;99.90;;;2.97;100.00;99924.47;4750793;30;20295;-61
2021/01/02 04:55:33;;;;;;;16.53;11.07;;;1.90;99.90;;;3.05;100.00;99924.41;4750748;30;20217;-62
2021/01/02 04:58:07;;;;;;;15.33;10.93;;;2.00;99.90;;;2.91;100.00;99919.88;4750633;30;20208;-62
2021/01/02 05:00:38;;;;;;;14.70;10.53;;;2.00;99.90;;;2.82;100.00;99924.41;4750606;30;20280;-62
2021/01/02 05:03:05;;;;;;;15.83;10.97;;;1.90;99.90;;;3.07;100.00;99919.75;4750897;30;20200;-62
2021/01/02 05:05:33;;;;;;;14.80;10.70;;;2.00;99.90;;;2.92;100.00;99926.84;4750540;30;20208;-62
2021/01/02 05:08:00;;;;;;;14.80;10.57;;;2.00;99.90;;;2.58;100.00;99927.22;4750199;30;20236;-63
2021/01/02 05:10:28;;;;;;;16.40;11.23;;;1.90;99.90;;;2.62;100.00;99936.50;4750367;30;20513;-62
2021/01/02 05:13:12;;;;;;;18.13;11.30;;;1.80;99.90;;;3.03;100.00;99929.91;4750320;30;20244;-62
2021/01/02 05:15:40;;;;;;;15.43;11.00;;;1.90;99.90;;;2.42;100.00;99941.41;4750736;30;20254;-62
2021/01/02 05:18:07;;;;;;;14.27;10.80;;;1.80;99.90;;;2.44;100.00;99941.22;4750675;30;20248;-62
2021/01/02 05:20:35;;;;;;;17.43;11.10;;;1.70;99.90;;;2.42;100.00;99951.19;4750797;30;20299;-63
2021/01/02 05:23:09;;;;;;;16.40;10.93;;;1.70;99.90;;;2.44;100.00;99944.72;4750340;30;20270;-63
2021/01/02 05:25:38;;;;;;;17.23;10.97;;;1.60;99.90;;;2.97;100.00;99938.59;4753375;30;20217;-62
2021/01/02 05:28:16;;;;;;;15.73;9.53;;;1.80;99.90;;;2.64;100.00;99939.78;4753544;30;20267;-62
2021/01/02 05:30:44;;;;;;;15.53;10.10;;;1.80;99.90;;;2.68;100.00;99937.63;4753917;30;20293;-62
2021/01/02 05:33:13;;;;;;;13.57;9.57;;;1.80;99.90;;;2.70;100.00;99938.28;4753693;30;20780;-62
2021/01/02 05:35:43;;;;;;;17.90;11.13;;;1.80;99.90;;;2.87;100.00;99943.34;4753509;30;20303;-63
2021/01/02 05:38:18;;;;;;;15.07;11.00;;;1.90;99.90;;;3.26;100.00;99937.91;4753722;30;20240;-62
2021/01/02 05:40:50;;;;;;;17.00;11.47;;;2.00;99.90;;;3.35;99.24;99937.66;4753469;30;20290;-63
2021/01/02 05:43:20;;;;;;;15.27;10.67;;;2.10;99.90;;;3.35;99.21;99945.63;4753535;30;20501;-62
2021/01/02 05:45:48;;;;;;;15.87;10.37;;;2.20;99.90;;;3.18;99.81;99943.28;4753519;30;20694;-63
2021/01/02 05:48:22;;;;;;;13.73;9.23;;;2.20;99.90;;;3.21;98.72;99945.59;4753414;30;20271;-63
2021/01/02 05:50:53;;;;;;;13.37;9.53;;;2.20;99.90;;;3.12;98.63;99943.97;4753405;30;20275;-63
2021/01/02 05:53:27;;;;;;;14.30;9.57;;;2.20;99.90;;;3.14;99.44;99950.81;4753397;30;20196;-62
2021/01/02 05:56:03;;;;;;;14.47;9.07;;;2.20;99.90;;;3.24;97.73;99950.56;4753167;30;20743;-62
2021/01/02 05:58:31;;;;;;;13.33;9.00;;;2.30;99.90;;;3.00;99.50;99954.22;4752976;30;20668;-62
2021/01/02 06:01:09;;;;;;;12.10;8.43;;;2.20;99.90;;;2.87;98.80;99953.13;4753359;30;20331;-63
2021/01/02 06:03:38;;;;;;;12.50;8.83;;;2.10;99.90;;;3.20;97.94;99954.56;4753265;30;20281;-63
2021/01/02 06:06:09;;;;;;;15.23;9.67;;;2.10;99.90;;;3.31;96.61;99954.16;4753237;30;20290;-64
2021/01/02 06:08:40;;;;;;;12.70;9.17;;;2.20;99.90;;;3.17;97.42;99961.09;4752795;30;20687;-62
2021/01/02 06:11:11;;;;;;;12.13;8.90;;;2.20;99.90;;;2.91;99.26;99970.41;4753151;30;20284;-63
2021/01/02 06:13:41;;;;;;;12.63;8.87;;;2.10;99.90;;;2.81;99.88;99973.28;4752986;30;20331;-62
2021/01/02 06:16:11;;;;;;;14.53;9.47;;;2.10;99.90;;;2.47;100.00;99968.28;4753092;30;20250;-63
2021/01/02 06:18:40;;;;;;;12.87;8.90;;;2.00;99.90;;;2.82;100.00;99974.94;4753109;30;20220;-63
2021/01/02 06:21:10;;;;;;;12.73;9.27;;;1.90;99.90;;;2.88;100.00;99973.41;4752988;30;20291;-63
2021/01/02 06:23:40;;;;;;;14.17;9.27;;;1.90;99.90;;;2.92;100.00;99972.88;4752773;30;20571;-62
2021/01/02 06:26:10;;;;;;;12.23;8.40;;;1.90;99.90;;;2.77;100.00;99976.47;4752775;30;20247;-62
2021/01/02 06:28:39;;;;;;;11.80;8.23;;;1.90;99.90;;;2.58;100.00;99972.41;4752573;30;20471;-62
2021/01/02 06:31:09;;;;;;;13.93;10.13;;;1.80;99.90;;;2.58;100.00;99990.19;4752890;30;20236;-62
2021/01/02 06:33:43;;;;;;;14.63;10.20;;;1.70;99.90;;;2.70;100.00;99984.31;4752910;30;20615;-62
2021/01/02 06:36:30;;;;;;;13.80;9.73;;;1.80;99.90;;;2.83;100.00;99999.69;4752524;30;20280;-63
2021/01/02 06:39:21;;;;;;;16.27;12.00;;;1.80;99.90;;;2.74;100.00;100004.22;4752628;30;20271;-63
2021/01/02 06:41:50;;;;;;;14.93;11.03;;;1.80;99.90;;;2.99;100.00;99997.78;4752464;30;20208;-63
2021/01/02 06:44:40;;;;;;;14.90;11.30;;;1.80;99.90;;;2.91;100.00;100007.66;4752533;30;20216;-62
2021/01/02 06:47:17;;;;;;;15.00;10.23;;;1.90;99.90;;;3.33;98.39;100002.72;4752305;30;20294;-62
2021/01/02 06:49:45;;;;;;;13.23;9.93;;;2.00;99.90;;;3.22;97.46;99995.97;4752117;30;20320;-63
2021/01/02 06:52:34;;;;;;;14.10;9.67;;;2.10;99.90;;;3.11;98.76;99996.38;4752243;30;20274;-63
2021/01/02 06:55:23;;;;;;;12.70;8.93;;;2.10;99.90;;;2.94;100.00;100007.28;4752121;30;20679;-62
2021/01/02 06:57:52;;;;;;;12.77;9.40;;;2.10;99.90;;;2.98;100.00;100001.44;4751966;30;20265;-62
2021/01/02 07:00:23;;;;;;;11.93;8.43;;;2.00;99.90;;;2.99;100.00;99994.28;4752355;30;20216;-63
2021/01/02 07:02:51;;;;;;;11.03;8.53;;;2.00;99.90;;;2.93;100.00;99987.84;4752104;30;20196;-63
2021/01/02 07:05:47;;;;;;;13.87;8.70;;;2.00;99.90;;;2.87;100.00;100001.00;4752358;30;20270;-62
2021/01/02 07:08:40;;;;;;;12.13;8.40;;;2.00;99.90;;;2.89;100.00;99997.19;4751813;30;20224;-63
2021/01/02 07:11:33;;;;;;;12.40;8.70;;;2.00;99.90;;;2.92;100.00;99999.50;4752190;30;20246;-63
2021/01/02 07:14:25;;;;;;;12.73;8.60;;;1.90;99.90;;;2.77;100.00;99993.25;4752105;30;20683;-63
2021/01/02 07:16:57;;;;;;;10.33;8.17;;;1.90;99.90;;;2.65;100.00;99988.47;4752445;30;20239;-63
2021/01/02 07:19:42;;;;;;;13.43;8.87;;;1.80;99.90;;;2.54;100.00;99996.84;4752915;30;20235;-62
2021/01/02 07:22:13;;;;;;;13.70;8.87;;;1.70;99.90;;;2.81;100.00;99991.09;4752563;30;20197;-63
2021/01/02 07:24:45;;;;;;;12.83;9.33;;;1.70;99.90;;;2.87;100.00;99987.72;4752027;30;20730;-63
2021/01/02 07:27:14;;;;;;;14.87;9.50;;;1.70;99.90;;;2.99;99.57;99999.63;4755564;30;20224;-63
2021/01/02 07:29:44;;;;;;;12.83;8.67;;;1.80;99.90;;;2.62;100.00;99996.81;4755064;30;20216;-62
2021/01/02 07:32:14;;;;;;;14.00;9.10;;;1.80;99.90;;;2.37;100.00;100002.22;4751886;30;20302;-62
2021/01/02 07:34:45;;;;;;;13.77;9.40;;;1.70;99.90;;;2.65;100.00;100012.41;4751698;30;20303;-63
2021/01/02 07:37:13;;;;;;;17.37;11.73;;;1.60;99.90;;;3.15;100.00;100007.47;4751660;30;20279;-63
2021/01/02 07:39:52;;;;;;;16.23;11.90;;;1.80;99.90;;;3.17;99.69;100010.81;4751152;30;20583;-62
2021/01/02 07:42:22;;;;;;;14.33;11.17;;;1.90;99.90;;;3.37;98.88;100004.84;4751230;30;20263;-63
2021/01/02 07:45:02;;;;;;;13.90;11.03;;;2.10;99.90;;;3.26;99.42;100009.75;4751456;30;20236;-63
2021/01/02 07:47:30;;;;;;;13.23;9.37;;;2.20;99.90;;;3.12;100.00;100010.50;4750577;30;20301;-63
2021/01/02 07:50:14;;;;;;;13.47;9.33;;;2.20;99.90;;;3.01;100.00;100019.72;4751184;30;20748;-63
2021/01/02 07:52:48;;;;;;;11.60;8.30;;;2.10;99.90;;;2.88;100.00;100024.78;4751424;30;20275;-64
2021/01/02 07:55:17;;;;;;;12.10;9.50;;;2.10;99.90;;;2.98;100.00;100033.34;4754157;30;20250;-63
2021/01/02 07:57:47;;;;;;;12.17;8.67;;;2.10;99.90;;;3.18;100.00;100036.44;4751900;30;20262;-63
2021/01/02 08:00:15;;;;;;;12.93;9.17;;;2.20;99.90;;;3.21;100.00;100036.06;4751664;30;20299;-63
2021/01/02 08:02:43;;;;;;;13.00;9.80;;;2.20;99.90;;;3.36;99.60;100040.47;4751393;30;20420;-63
2021/01/02 08:05:14;;;;;;;11.83;8.67;;;2.30;99.90;;;3.47;98.50;100037.38;4752121;30;20278;-64
2021/01/02 08:07:52;;;;;;;11.43;8.63;;;2.30;99.90;;;3.50;96.69;100038.88;4752134;30;20325;-63
2021/01/02 08:10:20;;;;;;;11.63;7.97;;;2.40;99.90;;;3.57;97.09;100031.81;4752043;30;20231;-63
2021/01/02 08:12:49;;;;;;;12.33;8.83;;;2.40;99.90;;;3.82;94.43;100025.31;4750843;30;20245;-63
2021/01/02 08:15:27;;;;;;;12.50;8.30;;;2.60;99.90;;;3.63;96.02;100031.97;4751155;30;20242;-63
2021/01/02 08:18:00;;;;;;;9.70;7.67;;;2.60;99.90;;;3.65;96.84;100034.44;4751323;30;20294;-62
2021/01/02 08:20:28;;;;;;;12.90;8.77;;;2.60;99.90;;;3.70;97.43;100034.72;4751222;30;20292;-63
2021/01/02 08:22:55;;;;;;;10.80;8.17;;;2.60;99.90;;;3.52;97.99;100039.50;4751036;30;20309;-62
2021/01/02 08:25:23;;;;;;;11.37;8.07;;;2.60;99.90;;;3.55;98.17;100036.50;4750739;30;20248;-61
2021/01/02 08:27:51;;;;;;;13.03;8.67;;;2.50;99.90;;;4.00;95.41;100043.63;4740428;30;20263;-62
2021/01/02 08:30:20;;;;;;;12.17;8.23;;;2.60;99.90;;;4.11;94.66;100044.00;4720197;30;20310;-63
2021/01/02 08:32:53;;;;;;;12.20;8.70;;;2.80;99.90;;;4.10;94.89;100044.19;4715761;30;20253;-62
2021/01/02 08:35:27;;;;;;;12.87;9.23;;;2.90;99.90;;;4.10;94.18;100050.34;4714482;30;20228;-62
2021/01/02 08:38:05;;;;;;;12.67;8.60;;;2.90;99.90;;;4.28;93.90;100058.84;4715394;30;20194;-62
2021/01/02 08:40:37;;;;;;;11.93;8.50;;;3.00;99.90;;;4.37;93.67;100055.09;4715690;30;20198;-62
2021/01/02 08:43:04;;;;;;;12.50;8.57;;;3.10;99.90;;;4.52;93.03;100055.09;4715837;30;20203;-62
2021/01/02 08:45:35;;;;;;;12.03;8.77;;;3.20;99.90;;;4.64;92.51;100056.28;4715583;30;20250;-61
2021/01/02 08:48:08;;;;;;;10.73;8.17;;;3.30;99.90;;;4.67;91.71;100055.91;4715787;30;20216;-62
2021/01/02 08:50:39;;;;;;;12.70;8.90;;;3.40;99.90;;;4.47;93.11;100058.31;4715517;30;20335;-63
2021/01/02 08:53:07;;;;;;;11.53;8.03;;;3.30;99.90;;;4.59;92.20;100056.00;4715747;30;20290;-62
2021/01/02 08:55:35;;;;;;;11.63;7.90;;;3.40;99.90;;;4.74;91.02;100049.66;4715362;30;20300;-62
2021/01/02 08:58:02;;;;;;;12.57;8.70;;;3.40;99.90;;;4.84;90.33;100066.22;4715813;30;20305;-62
2021/01/02 09:00:30;;;;;;;10.30;7.87;;;3.50;99.90;;;4.93;90.21;100062.44;4718535;30;20219;-62
2021/01/02 09:03:07;;;;;;;16.73;8.70;;;3.60;99.90;;;4.92;89.09;100070.66;4719253;30;20628;-63
2021/01/02 09:05:36;;;;;;;10.73;8.33;;;3.60;99.90;;;4.90;89.24;100068.13;4719241;30;20643;-63
2021/01/02 09:08:06;;;;;;;9.80;7.70;;;3.60;99.90;;;5.06;89.34;100061.75;4718657;30;20251;-63
2021/01/02 09:10:37;;;;;;;12.63;8.13;;;3.70;99.90;;;5.46;85.81;100060.41;4718844;30;20199;-62
2021/01/02 09:13:22;;;;;;;12.07;8.57;;;3.90;99.90;;;5.36;86.27;100062.53;4733765;30;20248;-62
2021/01/02 09:15:59;;;;;;;11.37;8.57;;;4.10;99.90;;;5.25;86.29;100061.19;4754082;30;20232;-63
2021/01/02 09:18:39;;;;;;;13.43;8.67;;;4.10;99.90;;;5.48;84.72;100058.38;4754301;30;20212;-62
2021/01/02 09:21:27;;;;;;;9.47;7.53;;;4.20;99.90;;;5.43;83.53;100066.13;4754060;30;20534;-62
2021/01/02 09:24:00;;;;;;;10.77;7.93;;;4.30;99.90;;;5.26;85.72;100068.16;4753920;30;20222;-62
2021/01/02 09:26:32;;;;;;;10.57;7.93;;;4.30;99.90;;;5.15;85.61;100068.66;4753524;30;20271;-62
2021/01/02 09:29:11;;;;;;;10.57;7.73;;;4.20;99.90;;;5.40;84.50;100067.31;4753780;30;20306;-62
2021/01/02 09:31:39;;;;;;;11.40;8.23;;;4.20;99.90;;;5.32;85.14;100072.78;4753565;30;20204;-62
2021/01/02 09:34:06;;;;;;;10.77;8.20;;;4.20;99.90;;;5.71;81.23;100073.19;4753454;30;20428;-63
2021/01/02 09:36:34;;;;;;;10.80;8.20;;;4.40;99.90;;;5.74;84.06;100066.63;4753761;30;20286;-62
2021/01/02 09:39:01;;;;;;;12.53;8.37;;;4.40;99.90;;;5.80;81.90;100066.69;4753352;30;20214;-61
2021/01/02 09:41:30;;;;;;;12.77;8.17;;;4.50;99.90;;;5.63;83.04;100067.16;4753007;30;20704;-63
2021/01/02 09:44:01;;;;;;;10.03;7.80;;;4.50;99.90;;;5.74;81.99;100066.63;4753943;30;20254;-62
2021/01/02 09:46:38;;;;;;;9.27;7.57;;;4.50;99.90;;;5.81;80.13;100068.38;4753575;30;20248;-62
2021/01/02 09:49:05;;;;;;;10.83;7.73;;;4.60;99.90;;;6.10;77.89;100070.09;4753184;30;20338;-62
2021/01/02 09:51:32;;;;;;;8.93;6.93;;;4.80;99.90;;;6.13;78.88;100067.03;4753427;30;20314;-61
2021/01/02 09:53:59;;;;;;;10.77;7.27;;;4.90;99.90;;;6.13;79.03;100061.69;4753188;30;20212;-61
2021/01/02 09:56:27;;;;;;;8.03;6.30;;;4.90;99.90;;;6.06;77.78;100060.78;4752776;30;20312;-62
2021/01/02 09:58:55;;;;;;;10.13;7.63;;;4.90;99.90;;;6.08;77.60;100070.28;4753346;30;20635;-63
2021/01/02 10:01:22;;;;;;;10.17;7.40;;;4.90;99.90;;;6.27;76.92;100060.78;4752994;30;20302;-62
2021/01/02 10:03:49;;;;;;;9.23;7.30;;;5.10;99.90;;;6.00;79.39;100061.56;4753169;30;20298;-61
2021/01/02 10:06:17;;;;;;;9.27;7.50;;;5.00;99.90;;;6.12;77.29;100076.09;4753116;30;20215;-62
2021/01/02 10:08:44;;;;;;;9.33;6.83;;;5.00;99.90;;;6.25;76.25;100065.47;4753012;30;20267;-62
2021/01/02 10:11:11;;;;;;;9.23;6.47;;;5.00;99.90;;;6.06;77.13;100064.31;4751789;30;20298;-62
2021/01/02 10:13:38;;;;;;;8.13;6.60;;;5.00;99.90;;;6.03;78.90;100064.69;4753090;30;20226;-63
2021/01/02 10:16:06;;;;;;;9.27;7.33;;;4.90;99.90;;;6.19;78.84;100072.44;4753050;30;20674;-63
2021/01/02 10:18:33;;;;;;;9.60;7.27;;;4.90;99.90;;;6.29;77.04;100063.25;4753107;30;20208;-64
2021/01/02 10:21:01;;;;;;;9.13;7.00;;;5.00;99.90;;;6.31;74.73;100075.38;4752972;30;20296;-63
2021/01/02 10:23:28;;;;;;;11.30;6.73;;;5.10;99.90;;;6.12;75.53;100079.56;4752517;30;20645;-64
2021/01/02 10:25:55;;;;;;;9.30;7.17;;;5.00;99.90;;;6.10;75.95;100078.94;4752579;30;20276;-62
2021/01/02 10:28:22;;;;;;;10.93;7.90;;;5.00;99.90;;;6.12;78.01;100074.22;4752541;30;20942;-62
2021/01/02 10:30:49;;;;;;;9.37;7.27;;;5.00;99.90;;;6.46;75.92;100069.97;4752751;30;20265;-62
2021/01/02 10:33:19;;;;;;;9.80;7.20;;;5.10;99.90;;;6.49;75.47;100070.41;4752573;30;20279;-64
2021/01/02 10:35:46;;;;;;;8.53;6.80;;;5.20;99.90;;;6.48;74.26;100071.41;4752512;30;20226;-62
2021/01/02 10:38:14;;;;;;;9.67;7.50;;;5.20;99.90;;;6.52;74.89;100063.81;4752686;30;20294;-63
2021/01/02 10:40:44;;;;;;;9.43;7.03;;;5.20;99.90;;;6.49;75.56;100061.53;4752398;30;20320;-63
2021/01/02 10:43:11;;;;;;;10.77;7.73;;;5.20;99.90;;;6.62;74.60;100062.44;4752877;30;20231;-63